Time;durP1;ratioP1;P1;durP2;ratioP2;P2;SDS_P1;SDS_P2;PMS_P1;PMS_P2;Temp;Humidity;BMP_temperature;BMP_pressure;BME280_temperature;BME280_humidity;BME280_pressure;Samples;Min_cycle;Max_cycle;Signal;HPM_P1;HPM_P2
2021/07/24 00:00:57;;;;;;;11.87;10.77;;;18.80;99.90;;;;;;5062170;28;20530;-84
2021/07/24 00:03:26;;;;;;;11.23;10.07;;;18.80;99.90;;;;;;5062105;28;20446;-84
2021/07/24 00:05:54;;;;;;;13.20;10.60;;;18.80;99.90;;;;;;5060654;28;20505;-84
2021/07/24 00:08:21;;;;;;;11.83;9.90;;;18.80;99.90;;;;;;5061879;28;20442;-84
2021/07/24 00:10:47;;;;;;;11.17;10.07;;;18.80;99.90;;;;;;5061362;28;20476;-84
2021/07/24 00:13:14;;;;;;;11.77;10.60;;;18.80;99.90;;;;;;5062265;28;20434;-84
2021/07/24 00:15:41;;;;;;;11.87;10.07;;;18.80;99.90;;;;;;5078608;28;20469;-83
2021/07/24 00:18:07;;;;;;;11.13;9.80;;;18.70;99.90;;;;;;5064696;28;20929;-83
2021/07/24 00:20:34;;;;;;;14.20;10.23;;;18.70;99.90;;;;;;5060385;28;20447;-84
2021/07/24 00:23:03;;;;;;;11.23;9.50;;;18.70;99.90;;;;;;5059321;28;20513;-84
2021/07/24 00:25:29;;;;;;;12.13;10.50;;;18.70;99.90;;;;;;5058795;28;20569;-84
2021/07/24 00:27:56;;;;;;;10.53;9.43;;;18.60;99.90;;;;;;5059220;28;20503;-83
2021/07/24 00:30:23;;;;;;;13.43;9.83;;;18.60;99.90;;;;;;5060591;28;20457;-83
2021/07/24 00:32:50;;;;;;;10.53;9.37;;;18.60;99.90;;;;;;5058921;28;20474;-83
2021/07/24 00:35:17;;;;;;;14.83;10.53;;;18.60;99.90;;;;;;5060266;28;20477;-84
2021/07/24 00:37:43;;;;;;;11.00;9.47;;;18.60;99.90;;;;;;5060447;28;20872;-84
2021/07/24 00:40:15;;;;;;;10.80;9.83;;;18.70;99.90;;;;;;5061033;28;20960;-84
2021/07/24 00:42:44;;;;;;;12.10;9.43;;;18.80;99.90;;;;;;5066157;28;20470;-84
2021/07/24 00:45:14;;;;;;;11.47;9.87;;;18.80;99.90;;;;;;5064743;28;20897;-83
2021/07/24 00:47:43;;;;;;;11.60;10.47;;;18.90;99.90;;;;;;5069762;28;20417;-83
2021/07/24 00:50:14;;;;;;;15.47;11.30;;;18.70;99.90;;;;;;5073637;28;20829;-87
2021/07/24 00:52:41;;;;;;;12.77;10.20;;;18.70;99.90;;;;;;5062548;28;20435;-84
2021/07/24 00:55:09;;;;;;;15.30;9.87;;;18.80;99.90;;;;;;5066524;28;20447;-84
2021/07/24 00:57:38;;;;;;;11.27;9.60;;;18.70;99.90;;;;;;5060719;28;20474;-82
2021/07/24 01:00:06;;;;;;;12.00;9.80;;;18.70;99.90;;;;;;5066968;28;20446;-84
2021/07/24 01:02:33;;;;;;;11.60;9.93;;;18.70;99.90;;;;;;5077049;28;20458;-83
2021/07/24 01:05:02;;;;;;;9.93;9.00;;;18.70;99.90;;;;;;5075481;28;20452;-84
2021/07/24 01:07:30;;;;;;;12.13;9.10;;;18.60;99.90;;;;;;5058794;28;20465;-83
2021/07/24 01:09:57;;;;;;;10.33;9.33;;;18.60;99.90;;;;;;5058533;28;20810;-83
2021/07/24 01:12:24;;;;;;;11.03;9.83;;;18.70;99.90;;;;;;5057911;28;20446;-83
2021/07/24 01:14:52;;;;;;;10.57;9.50;;;18.70;99.90;;;;;;5059974;28;20473;-84
2021/07/24 01:17:19;;;;;;;10.30;9.30;;;18.70;99.90;;;;;;5059590;28;20600;-84
2021/07/24 01:19:46;;;;;;;14.70;10.73;;;18.80;99.90;;;;;;5060783;28;20434;-84
2021/07/24 01:22:14;;;;;;;9.90;8.90;;;18.80;99.90;;;;;;5060037;28;20482;-84
2021/07/24 01:24:40;;;;;;;12.37;11.17;;;18.80;99.90;;;;;;5060726;28;20450;-84
2021/07/24 01:27:08;;;;;;;12.33;11.20;;;18.80;99.90;;;;;;5058119;28;20504;-84
2021/07/24 01:29:36;;;;;;;12.03;10.90;;;18.80;99.90;;;;;;5060224;28;20456;-84
2021/07/24 01:32:02;;;;;;;12.23;10.90;;;18.80;99.90;;;;;;5063663;28;20452;-83
2021/07/24 01:34:29;;;;;;;14.57;11.03;;;18.70;99.90;;;;;;5062611;28;20445;-84
2021/07/24 01:36:56;;;;;;;12.53;11.30;;;18.60;99.90;;;;;;5067041;28;20470;-81
2021/07/24 01:39:24;;;;;;;15.80;12.03;;;18.50;99.90;;;;;;5076148;28;20476;-84
2021/07/24 01:41:51;;;;;;;13.27;11.97;;;18.40;99.90;;;;;;5075870;28;20481;-83
2021/07/24 01:44:20;;;;;;;14.63;11.77;;;18.50;99.90;;;;;;5073679;28;20457;-84
2021/07/24 01:46:46;;;;;;;12.60;10.90;;;18.50;99.90;;;;;;5071725;28;20541;-84
2021/07/24 01:49:19;;;;;;;13.23;11.93;;;18.40;99.90;;;;;;5064280;28;20476;-83
2021/07/24 01:54:43;;;;;;;13.20;11.80;;;18.20;99.90;;;;;;5062270;28;20410;-84
2021/07/24 01:57:12;;;;;;;12.53;11.23;;;18.20;99.90;;;;;;5061810;28;20469;-84
2021/07/24 01:59:45;;;;;;;14.27;12.77;;;18.30;99.90;;;;;;5061234;28;20450;-84
2021/07/24 02:02:14;;;;;;;14.20;12.00;;;18.30;99.90;;;;;;5061597;28;20470;-84
2021/07/24 02:04:46;;;;;;;16.23;12.00;;;18.30;99.90;;;;;;5061037;28;20451;-84
2021/07/24 02:07:14;;;;;;;15.53;13.87;;;18.30;99.90;;;;;;5061000;28;20988;-84
2021/07/24 02:09:42;;;;;;;14.27;12.77;;;18.20;99.90;;;;;;5062426;28;20454;-83
2021/07/24 02:12:09;;;;;;;14.40;12.97;;;18.20;99.90;;;;;;5064126;28;20500;-83
2021/07/24 02:14:36;;;;;;;17.20;13.90;;;18.20;99.90;;;;;;5056754;28;20477;-84
2021/07/24 02:17:03;;;;;;;13.63;12.27;;;18.20;99.90;;;;;;5056024;28;20469;-83
2021/07/24 02:19:32;;;;;;;13.50;12.10;;;18.20;99.90;;;;;;5057598;28;20877;-83
2021/07/24 02:21:59;;;;;;;20.05;13.93;;;18.10;99.90;;;;;;5077406;28;20449;-82
2021/07/24 02:24:26;;;;;;;15.57;13.57;;;18.00;99.90;;;;;;5069448;28;20202;-84
2021/07/24 02:26:53;;;;;;;13.50;12.30;;;18.00;99.90;;;;;;5071145;28;20458;-84
2021/07/24 02:29:20;;;;;;;15.07;13.37;;;18.10;99.90;;;;;;5064695;28;20442;-83
2021/07/24 02:31:46;;;;;;;16.20;12.70;;;18.00;99.90;;;;;;5068959;28;20442;-84
2021/07/24 02:34:13;;;;;;;14.83;12.50;;;18.00;99.90;;;;;;5066258;28;20450;-84
2021/07/24 02:36:40;;;;;;;14.00;12.43;;;18.00;99.90;;;;;;5065438;28;20539;-84
2021/07/24 02:39:06;;;;;;;17.70;14.40;;;18.00;99.90;;;;;;5066196;28;20442;-84
2021/07/24 02:41:33;;;;;;;15.40;13.30;;;18.00;99.90;;;;;;5064849;28;20446;-84
2021/07/24 02:44:00;;;;;;;18.07;13.83;;;18.00;99.90;;;;;;5064800;28;20578;-84
2021/07/24 02:46:27;;;;;;;16.20;14.57;;;18.10;99.90;;;;;;5064100;28;20459;-84
2021/07/24 02:48:54;;;;;;;14.80;13.20;;;18.00;99.90;;;;;;5065357;28;20446;-84
2021/07/24 02:51:20;;;;;;;17.40;14.87;;;18.00;99.90;;;;;;5072061;28;20449;-84
2021/07/24 02:53:47;;;;;;;14.93;13.40;;;18.00;99.90;;;;;;5065043;28;20855;-84
2021/07/24 02:56:13;;;;;;;17.00;15.00;;;18.00;99.90;;;;;;5064185;28;20520;-84
2021/07/24 02:58:40;;;;;;;19.30;14.83;;;17.90;99.90;;;;;;5064394;28;20441;-84
2021/07/24 03:01:08;;;;;;;17.47;15.67;;;17.90;99.90;;;;;;5065427;28;20450;-84
2021/07/24 03:03:35;;;;;;;18.73;16.67;;;17.80;99.90;;;;;;5064704;28;20482;-84
2021/07/24 03:06:02;;;;;;;17.33;14.80;;;17.80;99.90;;;;;;5071107;28;20466;-83
2021/07/24 03:08:28;;;;;;;18.70;15.23;;;17.80;99.90;;;;;;5077352;28;20450;-83
2021/07/24 03:10:55;;;;;;;18.90;14.80;;;17.80;99.90;;;;;;5069638;28;20445;-84
2021/07/24 03:13:21;;;;;;;18.67;14.77;;;17.80;99.90;;;;;;5063155;28;20441;-84
2021/07/24 03:15:48;;;;;;;19.60;14.77;;;17.70;99.90;;;;;;5063116;28;20470;-84
2021/07/24 03:18:16;;;;;;;21.10;15.47;;;17.70;99.90;;;;;;5063654;28;20824;-83
2021/07/24 03:20:43;;;;;;;19.03;17.03;;;17.70;99.90;;;;;;5063226;28;20442;-83
2021/07/24 03:23:10;;;;;;;21.40;15.03;;;17.70;99.90;;;;;;5061329;28;20482;-82
2021/07/24 03:25:40;;;;;;;17.57;15.10;;;17.70;99.90;;;;;;5063890;28;20498;-82
2021/07/24 03:28:06;;;;;;;19.30;14.87;;;17.70;99.90;;;;;;5067510;28;20439;-82
2021/07/24 03:30:33;;;;;;;19.17;14.10;;;17.60;99.90;;;;;;5067931;28;20434;-82
2021/07/24 03:32:59;;;;;;;19.23;15.93;;;17.60;99.90;;;;;;5062180;28;20815;-84
2021/07/24 03:35:27;;;;;;;20.73;16.77;;;17.30;99.90;;;;;;5063230;28;20446;-84
2021/07/24 03:37:54;;;;;;;27.60;15.77;;;17.50;99.90;;;;;;5063933;28;20469;-84
2021/07/24 03:40:21;;;;;;;18.03;16.13;;;17.50;99.90;;;;;;5065166;28;20959;-85
2021/07/24 03:42:48;;;;;;;21.00;17.73;;;17.60;99.90;;;;;;5062497;28;20478;-84
2021/07/24 03:45:14;;;;;;;17.67;15.97;;;17.60;99.90;;;;;;5075308;28;20465;-82
2021/07/24 03:47:41;;;;;;;16.97;15.17;;;17.60;99.90;;;;;;5077575;28;20461;-82
2021/07/24 03:50:09;;;;;;;18.97;16.97;;;17.60;99.90;;;;;;5063071;28;20499;-83
2021/07/24 03:52:37;;;;;;;21.43;17.33;;;17.60;99.90;;;;;;5073728;28;20442;-85
2021/07/24 03:55:04;;;;;;;18.30;15.97;;;17.70;99.90;;;;;;5072592;28;20443;-85
2021/07/24 03:57:31;;;;;;;19.80;16.50;;;17.70;99.90;;;;;;5070959;28;20455;-85
2021/07/24 04:00:00;;;;;;;20.93;16.30;;;17.70;99.90;;;;;;5071572;28;20464;-84
2021/07/24 04:02:27;;;;;;;18.57;16.13;;;17.70;99.90;;;;;;5071225;28;20454;-85
2021/07/24 04:04:54;;;;;;;19.60;16.90;;;17.70;99.90;;;;;;5071747;28;20461;-85
2021/07/24 04:07:23;;;;;;;19.10;16.47;;;17.80;99.90;;;;;;5073143;28;20466;-85
2021/07/24 04:09:53;;;;;;;22.20;16.65;;;17.70;99.90;;;;;;5071461;28;20441;-85
2021/07/24 04:12:20;;;;;;;19.97;16.37;;;17.70;99.90;;;;;;5064607;28;20221;-85
2021/07/24 04:14:46;;;;;;;17.73;15.33;;;17.80;99.90;;;;;;5062298;28;20477;-83
2021/07/24 04:17:13;;;;;;;18.00;15.87;;;17.80;99.90;;;;;;5060768;28;20500;-84
2021/07/24 04:19:40;;;;;;;24.37;17.03;;;17.80;99.90;;;;;;5061402;28;20445;-83
2021/07/24 04:22:06;;;;;;;23.27;17.87;;;17.90;99.90;;;;;;5066276;28;20427;-82
2021/07/24 04:24:33;;;;;;;20.43;17.87;;;17.90;99.90;;;;;;5076358;28;20486;-83
2021/07/24 04:27:01;;;;;;;21.37;16.40;;;17.90;99.90;;;;;;5060724;28;20471;-83
2021/07/24 04:29:27;;;;;;;19.57;17.63;;;17.90;99.90;;;;;;5060102;28;20446;-83
2021/07/24 04:31:55;;;;;;;20.43;18.30;;;17.90;99.90;;;;;;5060149;28;20501;-84
2021/07/24 04:34:22;;;;;;;27.97;17.57;;;18.00;99.90;;;;;;5064855;28;20423;-83
2021/07/24 04:36:49;;;;;;;37.97;19.00;;;18.00;99.90;;;;;;5062206;28;20482;-84
2021/07/24 04:39:15;;;;;;;20.13;16.20;;;18.00;99.90;;;;;;5065277;28;20453;-84
2021/07/24 04:41:42;;;;;;;46.73;37.60;;;18.00;99.90;;;;;;5061410;28;20485;-84
2021/07/24 04:44:10;;;;;;;19.17;16.03;;;17.90;99.90;;;;;;5061047;28;20486;-84
2021/07/24 04:46:37;;;;;;;22.43;16.80;;;18.00;99.90;;;;;;5065683;28;20477;-83
2021/07/24 04:49:03;;;;;;;19.50;16.13;;;18.00;99.90;;;;;;5060551;28;20451;-85
2021/07/24 04:51:30;;;;;;;18.53;15.47;;;18.00;99.90;;;;;;5059754;28;20623;-83
2021/07/24 04:53:58;;;;;;;18.70;15.73;;;18.10;99.90;;;;;;5060737;28;20443;-84
2021/07/24 04:56:26;;;;;;;20.20;17.17;;;18.20;99.90;;;;;;5061327;28;20516;-82
2021/07/24 04:58:53;;;;;;;21.63;17.50;;;18.20;99.90;;;;;;5078835;28;20439;-83
2021/07/24 05:01:21;;;;;;;18.80;16.70;;;18.30;99.90;;;;;;5079191;28;20494;-83
2021/07/24 05:03:48;;;;;;;18.53;16.60;;;18.20;99.90;;;;;;5079259;28;20486;-83
2021/07/24 05:06:15;;;;;;;21.50;17.47;;;18.30;99.90;;;;;;5077675;28;20461;-82
2021/07/24 05:08:42;;;;;;;18.37;14.90;;;18.30;99.90;;;;;;5079168;28;20435;-82
2021/07/24 05:11:08;;;;;;;22.67;17.10;;;18.30;99.90;;;;;;5079018;28;20443;-83
2021/07/24 05:13:35;;;;;;;20.17;16.10;;;18.50;99.90;;;;;;5071672;28;20451;-83
2021/07/24 05:16:01;;;;;;;17.10;14.97;;;18.50;99.90;;;;;;5061328;28;20496;-83
2021/07/24 05:18:29;;;;;;;20.03;15.90;;;18.60;99.90;;;;;;5069036;28;20435;-84
2021/07/24 05:20:56;;;;;;;20.63;16.00;;;18.70;99.90;;;;;;5078045;28;20422;-83
2021/07/24 05:23:23;;;;;;;23.60;15.83;;;18.70;99.90;;;;;;5067690;28;20478;-84
2021/07/24 05:25:50;;;;;;;21.17;17.30;;;18.70;99.90;;;;;;5070417;28;20470;-83
2021/07/24 05:28:16;;;;;;;22.70;17.57;;;18.90;99.90;;;;;;5065244;28;20446;-83
2021/07/24 05:30:43;;;;;;;22.23;16.20;;;18.90;99.90;;;;;;5063614;28;20444;-82
2021/07/24 05:33:09;;;;;;;19.03;17.00;;;18.90;99.90;;;;;;5069944;28;20469;-83
2021/07/24 05:35:37;;;;;;;18.20;15.30;;;19.00;99.90;;;;;;5062761;28;20481;-83
2021/07/24 05:38:04;;;;;;;18.60;15.63;;;19.10;99.90;;;;;;5090996;22;20500;-80
2021/07/24 05:40:30;;;;;;;18.07;15.57;;;19.10;99.90;;;;;;5070351;28;20450;-79
2021/07/24 05:43:00;;;;;;;18.87;16.13;;;19.30;99.90;;;;;;5069772;28;20442;-79
2021/07/24 05:45:27;;;;;;;17.10;14.97;;;19.30;99.90;;;;;;5069871;28;20445;-80
2021/07/24 05:47:53;;;;;;;19.80;15.00;;;19.30;99.90;;;;;;5069865;28;20466;-79
2021/07/24 05:50:20;;;;;;;22.57;18.07;;;19.30;99.90;;;;;;5071484;28;20446;-79
2021/07/24 05:52:48;;;;;;;19.27;15.30;;;19.40;99.90;;;;;;5075078;28;20451;-80
2021/07/24 05:55:15;;;;;;;18.20;15.90;;;19.40;99.90;;;;;;5075841;28;21014;-80
2021/07/24 05:57:41;;;;;;;21.20;16.93;;;19.50;99.90;;;;;;5074323;28;20466;-80
2021/07/24 06:00:09;;;;;;;18.10;16.00;;;19.50;99.90;;;;;;5074501;28;20454;-80
2021/07/24 06:02:35;;;;;;;18.77;15.63;;;19.50;99.90;;;;;;5075051;28;20469;-81
2021/07/24 06:05:02;;;;;;;16.43;14.70;;;19.60;99.90;;;;;;5078106;28;20486;-81
2021/07/24 06:07:31;;;;;;;16.67;14.97;;;19.60;99.90;;;;;;5078309;28;20466;-80
2021/07/24 06:09:59;;;;;;;19.50;15.03;;;19.60;99.90;;;;;;5077347;28;20438;-80
2021/07/24 06:12:26;;;;;;;19.50;17.50;;;19.70;99.90;;;;;;5078788;28;20446;-80
2021/07/24 06:14:52;;;;;;;27.37;17.57;;;19.80;99.90;;;;;;5078240;28;20442;-80
2021/07/24 06:17:19;;;;;;;16.70;15.10;;;19.90;99.90;;;;;;5074455;28;20531;-80
2021/07/24 06:19:45;;;;;;;18.57;16.00;;;19.90;99.90;;;;;;5067518;28;20453;-80
2021/07/24 06:22:12;;;;;;;17.80;15.97;;;20.00;99.90;;;;;;5065949;28;20840;-80
2021/07/24 06:24:38;;;;;;;16.57;14.77;;;20.10;99.90;;;;;;5065319;28;20532;-80
2021/07/24 06:27:06;;;;;;;18.52;14.10;;;19.80;99.90;;;;;;5065956;28;20465;-79
2021/07/24 06:29:33;;;;;;;17.07;14.73;;;20.20;99.90;;;;;;5067408;28;20207;-80
2021/07/24 06:32:00;;;;;;;15.90;14.20;;;20.30;99.90;;;;;;5065789;28;20572;-80
2021/07/24 06:34:26;;;;;;;15.33;13.77;;;20.40;99.90;;;;;;5062720;28;20499;-81
2021/07/24 06:36:53;;;;;;;15.37;13.80;;;20.60;99.90;;;;;;5062487;28;20614;-80
2021/07/24 06:39:19;;;;;;;16.93;14.90;;;20.60;99.90;;;;;;5062081;28;20498;-80
2021/07/24 06:41:46;;;;;;;20.93;14.10;;;20.70;99.90;;;;;;5062051;28;20491;-80
2021/07/24 06:44:14;;;;;;;22.47;15.63;;;20.80;99.90;;;;;;5062549;28;20489;-80
2021/07/24 06:46:50;;;;;;;15.90;13.97;;;20.90;99.90;;;;;;5068939;22;20530;-80
2021/07/24 06:49:37;;;;;;;17.30;14.50;;;21.10;99.90;;;;;;5061201;28;20449;-80
2021/07/24 06:52:07;;;;;;;18.00;13.93;;;;;;;;;;5061898;28;20929;-80
2021/07/24 06:55:18;;;;;;;17.90;14.47;;;21.30;99.90;;;;;;5062826;28;20527;-80
2021/07/24 06:57:45;;;;;;;16.20;13.47;;;;;;;;;;5064235;28;20521;-81
2021/07/24 07:00:14;;;;;;;16.63;14.03;;;21.30;99.90;;;;;;5112567;22;20485;-83
2021/07/24 07:02:41;;;;;;;16.23;13.10;;;21.40;99.90;;;;;;5075381;28;20438;-83
2021/07/24 07:05:08;;;;;;;17.30;13.13;;;21.90;99.90;;;;;;5076975;28;20430;-84
2021/07/24 07:07:34;;;;;;;16.20;13.37;;;21.60;99.90;;;;;;5078001;28;20433;-84
2021/07/24 07:10:01;;;;;;;14.77;13.20;;;21.70;99.90;;;;;;5077268;28;20474;-84
2021/07/24 07:12:28;;;;;;;16.00;13.50;;;21.80;99.90;;;;;;5074045;28;20473;-84
2021/07/24 07:14:55;;;;;;;16.60;14.30;;;21.90;99.90;;;;;;5074218;28;20489;-83
2021/07/24 07:17:23;;;;;;;17.77;14.27;;;21.90;99.90;;;;;;5076005;28;20457;-83
2021/07/24 07:19:49;;;;;;;16.57;13.67;;;22.00;99.90;;;;;;5077410;28;20450;-83
2021/07/24 07:22:16;;;;;;;22.07;17.90;;;22.10;99.90;;;;;;5075363;28;20496;-83
2021/07/24 07:24:43;;;;;;;27.27;21.10;;;22.10;99.90;;;;;;5065964;28;20473;-82
2021/07/24 07:27:09;;;;;;;19.50;16.03;;;22.20;99.90;;;;;;5067674;28;20453;-82
2021/07/24 07:29:36;;;;;;;14.80;13.00;;;22.30;99.90;;;;;;5067864;28;20477;-83
2021/07/24 07:32:03;;;;;;;17.53;14.00;;;22.30;99.90;;;;;;5064992;28;20450;-83
2021/07/24 07:34:31;;;;;;;20.90;16.80;;;22.40;99.90;;;;;;5065641;28;20485;-83
2021/07/24 07:36:57;;;;;;;18.27;14.80;;;22.40;99.90;;;;;;5062546;28;20473;-83
2021/07/24 07:39:24;;;;;;;17.10;14.83;;;22.50;99.90;;;;;;5065477;28;21022;-84
2021/07/24 07:41:50;;;;;;;36.23;28.13;;;22.60;99.90;;;;;;5078240;28;20438;-82
2021/07/24 07:44:17;;;;;;;18.60;15.60;;;22.60;99.90;;;;;;5080480;28;20566;-83
2021/07/24 07:46:43;;;;;;;16.90;13.40;;;22.60;99.90;;;;;;5066306;28;20442;-82
2021/07/24 07:49:10;;;;;;;16.00;14.03;;;22.70;99.90;;;;;;5059697;28;20493;-82
2021/07/24 07:51:38;;;;;;;16.67;14.97;;;22.80;99.90;;;;;;5059515;28;20450;-82
2021/07/24 07:54:04;;;;;;;17.53;14.60;;;22.80;99.90;;;;;;5060058;28;20482;-83
2021/07/24 07:56:31;;;;;;;23.10;19.00;;;22.80;99.90;;;;;;5059732;28;20482;-83
2021/07/24 07:58:57;;;;;;;30.90;23.80;;;22.90;99.90;;;;;;5062214;28;20466;-83
2021/07/24 08:01:24;;;;;;;19.30;16.53;;;23.00;99.90;;;;;;5064367;28;20431;-84
2021/07/24 08:03:50;;;;;;;18.83;14.87;;;23.00;99.90;;;;;;5062822;28;20442;-83
2021/07/24 08:06:17;;;;;;;18.50;16.37;;;23.10;99.90;;;;;;5062111;28;20476;-84
2021/07/24 08:08:45;;;;;;;29.83;24.23;;;23.50;99.90;;;;;;5062137;28;20442;-84
2021/07/24 08:11:12;;;;;;;15.17;13.60;;;23.20;99.90;;;;;;5061250;28;20995;-84
2021/07/24 08:13:38;;;;;;;17.90;14.03;;;23.20;99.90;;;;;;5061173;28;20518;-83
2021/07/24 08:16:13;;;;;;;16.17;13.83;;;23.30;99.90;;;;;;5062714;28;20449;-85
2021/07/24 08:18:40;;;;;;;14.00;12.50;;;23.50;99.90;;;;;;5070835;28;20414;-83
2021/07/24 08:21:06;;;;;;;15.13;13.53;;;23.50;99.90;;;;;;5078075;28;20469;-82
2021/07/24 08:23:33;;;;;;;19.33;16.43;;;23.50;99.90;;;;;;5078525;28;20425;-84
2021/07/24 08:26:01;;;;;;;17.23;15.20;;;23.70;99.90;;;;;;5074828;28;20934;-83
2021/07/24 08:28:28;;;;;;;18.70;14.40;;;23.80;99.90;;;;;;5075123;28;20431;-82
2021/07/24 08:30:55;;;;;;;14.50;12.60;;;23.80;99.90;;;;;;5074321;28;20569;-84
2021/07/24 08:33:21;;;;;;;17.90;14.83;;;23.90;99.90;;;;;;5066101;28;20449;-84
2021/07/24 08:35:48;;;;;;;15.60;13.27;;;23.90;99.90;;;;;;5064479;28;20482;-83
2021/07/24 08:38:15;;;;;;;19.27;15.10;;;23.90;99.90;;;;;;5067310;28;20468;-84
2021/07/24 08:40:45;;;;;;;21.03;14.60;;;24.00;99.90;;;;;;5063805;28;20469;-84
2021/07/24 08:43:14;;;;;;;27.67;15.77;;;24.10;99.90;;;;;;5063361;28;20648;-86
2021/07/24 08:45:41;;;;;;;21.27;17.77;;;24.10;99.90;;;;;;5065016;28;20439;-81
2021/07/24 08:48:08;;;;;;;18.00;15.57;;;24.10;99.90;;;;;;5064505;28;20473;-84
2021/07/24 08:50:35;;;;;;;16.23;13.50;;;24.20;99.90;;;;;;5062697;28;20494;-85
2021/07/24 08:53:04;;;;;;;21.30;16.80;;;24.30;99.90;;;;;;5061715;28;20446;-84
2021/07/24 08:55:32;;;;;;;17.73;14.63;;;24.30;99.90;;;;;;5067151;28;20509;-84
2021/07/24 08:57:59;;;;;;;19.40;17.30;;;24.30;99.90;;;;;;5073944;28;20453;-84
2021/07/24 09:00:29;;;;;;;16.63;14.23;;;24.40;99.90;;;;;;5074585;28;20478;-83
2021/07/24 09:02:59;;;;;;;14.60;13.07;;;24.40;99.90;;;;;;5073362;28;20928;-85
2021/07/24 09:05:29;;;;;;;16.45;13.57;;;24.50;99.90;;;;;;5069887;28;20445;-82
2021/07/24 09:07:57;;;;;;;15.70;12.63;;;24.50;99.90;;;;;;5060197;28;20243;-84
2021/07/24 09:10:24;;;;;;;16.93;13.70;;;24.60;99.90;;;;;;5058731;28;20459;-83
2021/07/24 09:12:55;;;;;;;15.80;12.40;;;24.70;99.90;;;;;;5065904;28;20450;-82
2021/07/24 09:15:21;;;;;;;14.10;12.50;;;24.80;99.90;;;;;;5072603;28;20520;-85
2021/07/24 09:17:49;;;;;;;17.37;12.80;;;24.80;99.90;;;;;;5068413;28;20450;-85
2021/07/24 09:20:20;;;;;;;16.93;13.63;;;24.90;99.90;;;;;;5064362;28;20468;-85
2021/07/24 09:22:47;;;;;;;16.10;13.57;;;24.90;99.90;;;;;;5062291;28;20431;-84
2021/07/24 09:25:15;;;;;;;19.70;14.67;;;25.00;99.90;;;;;;5061003;28;20449;-85
2021/07/24 09:27:43;;;;;;;16.77;14.07;;;25.00;99.90;;;;;;5061181;28;20499;-85
2021/07/24 09:30:28;;;;;;;13.47;12.07;;;25.00;99.90;;;;;;5061884;28;20469;-84
2021/07/24 09:33:03;;;;;;;17.30;12.57;;;25.10;99.90;;;;;;5074344;28;20494;-83
2021/07/24 09:35:36;;;;;;;18.30;13.57;;;25.10;99.90;;;;;;5076316;28;20449;-84
2021/07/24 09:38:02;;;;;;;15.93;13.07;;;25.20;99.90;;;;;;5060654;28;20917;-85
2021/07/24 09:40:29;;;;;;;16.17;12.73;;;25.30;99.90;;;;;;5060835;28;20520;-85
2021/07/24 09:42:55;;;;;;;19.37;14.27;;;25.40;99.90;;;;;;5060466;28;20454;-85
2021/07/24 09:45:22;;;;;;;20.33;14.20;;;25.40;99.90;;;;;;5060699;28;20447;-84
2021/07/24 09:47:52;;;;;;;16.67;13.17;;;25.50;99.90;;;;;;5060488;28;21047;-86
2021/07/24 09:50:20;;;;;;;16.37;13.03;;;25.50;99.90;;;;;;5060512;28;20470;-85
2021/07/24 09:52:49;;;;;;;17.03;13.90;;;25.50;99.90;;;;;;5060437;28;20867;-84
2021/07/24 09:55:20;;;;;;;15.23;12.80;;;25.60;99.90;;;;;;5066501;28;20478;-85
2021/07/24 09:57:46;;;;;;;16.00;14.30;;;25.50;99.90;;;;;;5061003;28;20438;-85
2021/07/24 10:00:27;;;;;;;13.53;12.20;;;25.60;99.90;;;;;;5060736;28;21014;-84
2021/07/24 10:02:58;;;;;;;15.07;13.57;;;25.60;99.90;;;;;;5061530;28;20462;-85
2021/07/24 10:05:33;;;;;;;15.23;13.27;;;25.70;99.90;;;;;;5060920;28;20442;-85
2021/07/24 10:08:03;;;;;;;13.87;12.30;;;25.70;99.90;;;;;;5066181;28;20494;-85
2021/07/24 10:10:30;;;;;;;14.00;12.20;;;25.80;99.90;;;;;;5060806;28;20470;-83
2021/07/24 10:12:57;;;;;;;16.43;13.33;;;25.80;99.90;;;;;;5057171;28;20482;-83
2021/07/24 10:15:25;;;;;;;13.00;11.70;;;25.80;99.90;;;;;;5060305;28;20543;-84
2021/07/24 10:17:52;;;;;;;12.83;11.53;;;25.90;99.90;;;;;;5060729;28;20455;-84
2021/07/24 10:20:19;;;;;;;15.90;11.50;;;25.90;99.90;;;;;;5065118;28;20470;-85
2021/07/24 10:22:47;;;;;;;13.13;11.83;;;25.90;99.90;;;;;;5061395;28;20449;-83
2021/07/24 10:25:14;;;;;;;14.70;12.07;;;26.00;99.90;;;;;;5060576;28;20469;-84
2021/07/24 10:27:42;;;;;;;16.13;12.70;;;26.00;99.90;;;;;;5059488;28;20446;-85
2021/07/24 10:30:10;;;;;;;16.83;14.03;;;26.00;99.90;;;;;;5059866;28;20463;-85
2021/07/24 10:32:38;;;;;;;13.00;11.70;;;26.10;99.90;;;;;;5059602;28;20487;-85
2021/07/24 10:35:06;;;;;;;18.93;16.10;;;26.20;99.90;;;;;;5061566;28;20510;-85
2021/07/24 10:37:34;;;;;;;18.83;14.50;;;26.30;99.90;;;;;;5061914;28;20473;-84
2021/07/24 10:40:36;;;;;;;21.87;16.10;;;26.30;99.90;;;;;;5061073;28;20466;-85
2021/07/24 10:43:06;;;;;;;22.77;17.27;;;26.30;99.90;;;;;;5073705;28;20426;-87
2021/07/24 10:45:52;;;;;;;15.27;13.20;;;26.30;99.90;;;;;;5076447;28;20434;-84
2021/07/24 10:48:21;;;;;;;19.33;15.27;;;26.30;99.90;;;;;;5076563;28;20454;-85
2021/07/24 10:51:14;;;;;;;19.80;15.30;;;26.50;99.90;;;;;;5069447;28;20803;-84
2021/07/24 10:54:06;;;;;;;14.50;12.07;;;26.60;99.90;;;;;;5066995;28;20453;-85
2021/07/24 10:56:37;;;;;;;13.23;11.03;;;26.70;99.90;;;;;;5070250;28;20481;-83
2021/07/24 10:59:21;;;;;;;17.50;13.50;;;26.70;99.90;;;;;;5067675;28;20572;-85
2021/07/24 11:01:49;;;;;;;20.57;14.90;;;26.80;99.90;;;;;;5064478;28;20445;-85
2021/07/24 11:04:43;;;;;;;13.93;12.43;;;26.80;99.90;;;;;;5063473;28;20482;-86
2021/07/24 11:07:42;;;;;;;13.33;12.03;;;26.90;99.90;;;;;;5067083;28;21002;-84
2021/07/24 11:10:09;;;;;;;15.97;14.33;;;26.80;99.90;;;;;;5057034;28;20474;-84
2021/07/24 11:12:38;;;;;;;16.43;14.40;;;26.90;99.90;;;;;;5063600;28;20492;-84
2021/07/24 11:15:06;;;;;;;19.23;17.23;;;26.90;99.90;;;;;;5063191;28;20481;-86
2021/07/24 11:17:33;;;;;;;14.03;12.47;;;26.90;99.90;;;;;;5063909;28;20864;-83
2021/07/24 11:20:49;;;;;;;14.70;12.77;;;26.90;99.90;;;;;;5069211;28;20442;-84
2021/07/24 11:23:16;;;;;;;18.43;15.23;;;27.00;99.90;;;;;;5069116;28;20434;-84
2021/07/24 11:25:46;;;;;;;14.27;12.77;;;27.00;99.90;;;;;;5079597;28;20426;-82
2021/07/24 11:28:20;;;;;;;18.07;11.70;;;26.90;99.90;;;;;;5077891;28;20466;-84
2021/07/24 11:30:46;;;;;;;24.03;17.93;;;27.10;99.90;;;;;;5076289;28;20498;-84
2021/07/24 11:33:18;;;;;;;13.30;11.90;;;27.10;99.90;;;;;;5071249;28;20945;-84
2021/07/24 11:35:51;;;;;;;13.73;12.27;;;27.10;99.90;;;;;;5070058;28;20466;-83
2021/07/24 11:38:24;;;;;;;14.43;13.00;;;27.20;99.90;;;;;;5075169;28;20453;-83
2021/07/24 11:41:02;;;;;;;14.03;12.50;;;27.20;99.90;;;;;;5077559;28;20466;-83
2021/07/24 11:43:30;;;;;;;13.57;11.70;;;27.30;99.90;;;;;;5079240;28;20418;-83
2021/07/24 11:46:05;;;;;;;14.90;12.30;;;27.30;99.90;;;;;;5076920;28;20422;-83
2021/07/24 11:48:34;;;;;;;15.53;13.57;;;27.40;99.90;;;;;;5078858;28;20430;-83
2021/07/24 11:51:03;;;;;;;16.80;13.87;;;27.40;99.90;;;;;;5075912;28;20454;-84
2021/07/24 11:53:31;;;;;;;16.50;13.00;;;27.40;99.90;;;;;;5079067;28;20736;-85
2021/07/24 11:55:59;;;;;;;14.27;12.70;;;27.40;99.90;;;;;;5080150;28;20480;-83
2021/07/24 11:58:26;;;;;;;13.67;12.20;;;27.50;99.90;;;;;;5078527;28;20541;-83
2021/07/24 12:00:56;;;;;;;12.80;11.40;;;27.50;99.90;;;;;;5068941;28;20508;-83
2021/07/24 12:03:24;;;;;;;13.00;11.60;;;27.60;99.90;;;;;;5066154;28;20445;-83
2021/07/24 12:05:52;;;;;;;16.57;12.73;;;27.60;99.90;;;;;;5066606;28;20438;-83
2021/07/24 12:08:21;;;;;;;16.13;12.67;;;27.50;99.90;;;;;;5060863;28;20442;-82
2021/07/24 12:10:49;;;;;;;13.13;11.73;;;27.50;99.90;;;;;;5060056;28;20470;-84
2021/07/24 12:13:21;;;;;;;12.53;11.33;;;27.40;99.90;;;;;;5059295;28;20810;-84
2021/07/24 12:16:04;;;;;;;13.90;11.10;;;27.50;99.90;;;;;;5058273;28;21006;-84
2021/07/24 12:18:38;;;;;;;13.53;12.20;;;27.50;99.90;;;;;;5059299;28;20443;-84
2021/07/24 12:21:12;;;;;;;16.30;12.70;;;27.60;99.90;;;;;;5058492;28;20813;-84
2021/07/24 12:23:46;;;;;;;14.07;12.70;;;27.50;99.90;;;;;;5057804;28;20426;-84
2021/07/24 12:26:15;;;;;;;14.63;13.10;;;27.50;99.90;;;;;;5057596;28;20458;-84
2021/07/24 12:28:43;;;;;;;16.23;12.50;;;27.50;99.90;;;;;;5058669;28;20445;-84
2021/07/24 12:31:26;;;;;;;14.47;11.63;;;27.60;99.90;;;;;;5062069;28;20457;-84
2021/07/24 12:33:54;;;;;;;13.90;11.80;;;27.70;99.90;;;;;;5059213;28;20443;-84
2021/07/24 12:36:23;;;;;;;12.50;11.43;;;27.80;99.90;;;;;;5058825;28;20510;-84
2021/07/24 12:38:51;;;;;;;12.83;11.53;;;28.10;99.90;;;;;;5059260;28;20484;-85